createdAt,value
2022-08-28T00:00:38.119Z,100.00
2022-08-28T00:03:06.668Z,100.00
2022-08-28T00:05:36.140Z,100.00
2022-08-28T00:08:05.010Z,100.00
2022-08-28T00:10:35.225Z,100.00
2022-08-28T00:13:03.560Z,100.00
2022-08-28T00:15:33.680Z,100.00
2022-08-28T00:18:03.600Z,100.00
2022-08-28T00:20:32.592Z,100.00
2022-08-28T00:23:00.775Z,100.00
2022-08-28T00:25:30.807Z,100.00
2022-08-28T00:28:03.386Z,100.00
2022-08-28T00:30:37.847Z,100.00
2022-08-28T00:33:08.760Z,100.00
2022-08-28T00:35:40.655Z,100.00
2022-08-28T00:38:10.042Z,100.00
2022-08-28T00:40:39.274Z,100.00
2022-08-28T00:43:11.262Z,100.00
2022-08-28T00:45:40.384Z,100.00
2022-08-28T00:48:08.915Z,100.00
2022-08-28T00:50:51.369Z,100.00
2022-08-28T00:53:20.752Z,100.00
2022-08-28T00:55:54.713Z,100.00
2022-08-28T00:58:24.111Z,100.00
2022-08-28T01:00:52.431Z,100.00
2022-08-28T01:03:20.463Z,100.00
2022-08-28T01:05:53.271Z,100.00
2022-08-28T01:08:21.429Z,100.00
2022-08-28T01:10:56.347Z,100.00
2022-08-28T01:13:27.485Z,100.00
2022-08-28T01:15:56.531Z,100.00
2022-08-28T01:18:26.170Z,100.00
2022-08-28T01:21:00.669Z,100.00
2022-08-28T01:23:45.720Z,100.00
2022-08-28T01:26:14.356Z,100.00
2022-08-28T01:28:42.579Z,100.00
2022-08-28T01:31:11.504Z,100.00
2022-08-28T01:33:42.429Z,100.00
2022-08-28T01:36:12.572Z,100.00
2022-08-28T01:38:42.712Z,100.00
2022-08-28T01:41:13.893Z,100.00
2022-08-28T01:43:42.856Z,100.00
2022-08-28T01:46:12.731Z,100.00
2022-08-28T01:48:44.548Z,100.00
2022-08-28T01:51:13.683Z,100.00
2022-08-28T01:53:45.345Z,100.00
2022-08-28T01:56:18.021Z,100.00
2022-08-28T01:58:48.020Z,100.00
2022-08-28T02:01:19.884Z,100.00
2022-08-28T02:03:48.610Z,100.00
2022-08-28T02:06:17.887Z,100.00
2022-08-28T02:08:46.678Z,100.00
2022-08-28T02:11:16.605Z,100.00
2022-08-28T02:13:44.737Z,100.00
2022-08-28T02:16:13.548Z,100.00
2022-08-28T02:18:41.902Z,100.00
2022-08-28T02:21:11.581Z,100.00
2022-08-28T02:23:41.498Z,100.00
2022-08-28T02:26:10.337Z,100.00
2022-08-28T02:28:40.205Z,100.00
2022-08-28T02:31:09.350Z,100.00
2022-08-28T02:33:38.285Z,100.00
2022-08-28T02:36:08.468Z,100.00
2022-08-28T02:38:37.817Z,100.00
2022-08-28T02:41:06.550Z,100.00
2022-08-28T02:43:34.705Z,100.00
2022-08-28T02:46:04.660Z,100.00
2022-08-28T02:48:35.380Z,100.00
2022-08-28T02:51:06.296Z,100.00
2022-08-28T02:53:34.455Z,100.00
2022-08-28T02:56:03.024Z,100.00
2022-08-28T02:58:32.186Z,100.00
2022-08-28T03:01:01.636Z,100.00
2022-08-28T03:03:32.621Z,100.00
2022-08-28T03:06:01.622Z,100.00
2022-08-28T03:08:32.181Z,100.00
2022-08-28T03:11:00.773Z,100.00
2022-08-28T03:13:30.085Z,100.00
2022-08-28T03:15:58.914Z,100.00
2022-08-28T03:18:30.074Z,100.00
2022-08-28T03:21:00.193Z,100.00
2022-08-28T03:23:28.303Z,100.00
2022-08-28T03:25:59.055Z,100.00
2022-08-28T03:28:28.848Z,100.00
2022-08-28T03:30:57.817Z,100.00
2022-08-28T03:33:26.785Z,100.00
2022-08-28T03:35:55.561Z,100.00
2022-08-28T03:38:25.325Z,100.00
2022-08-28T03:40:54.375Z,100.00
2022-08-28T03:43:24.544Z,100.00
2022-08-28T03:45:58.174Z,100.00
2022-08-28T03:48:27.415Z,100.00
2022-08-28T03:50:56.029Z,100.00
2022-08-28T03:53:28.926Z,100.00
2022-08-28T03:55:58.220Z,100.00
2022-08-28T03:58:27.444Z,100.00
2022-08-28T04:00:55.890Z,100.00
2022-08-28T04:03:24.026Z,100.00
2022-08-28T04:05:52.172Z,100.00
2022-08-28T04:08:22.626Z,100.00
2022-08-28T04:10:52.598Z,100.00
2022-08-28T04:13:21.655Z,100.00
2022-08-28T04:15:57.473Z,100.00
2022-08-28T04:18:26.309Z,100.00
2022-08-28T04:21:02.353Z,100.00
2022-08-28T04:23:31.067Z,100.00
2022-08-28T04:26:00.561Z,100.00
2022-08-28T04:28:28.720Z,100.00
2022-08-28T04:30:56.812Z,100.00
2022-08-28T04:33:26.284Z,100.00
2022-08-28T04:35:55.094Z,100.00
2022-08-28T04:38:23.471Z,100.00
2022-08-28T04:40:51.516Z,100.00
2022-08-28T04:43:21.258Z,100.00
2022-08-28T04:45:49.381Z,100.00
2022-08-28T04:48:17.787Z,100.00
2022-08-28T04:50:48.185Z,100.00
2022-08-28T04:53:18.160Z,100.00
2022-08-28T04:55:53.685Z,100.00
2022-08-28T04:58:24.511Z,100.00
2022-08-28T05:00:55.127Z,100.00
2022-08-28T05:03:24.200Z,100.00
2022-08-28T05:05:54.856Z,100.00
2022-08-28T05:08:27.320Z,100.00
2022-08-28T05:10:56.174Z,100.00
2022-08-28T05:13:27.246Z,100.00
2022-08-28T05:15:55.862Z,100.00
2022-08-28T05:18:25.486Z,100.00
2022-08-28T05:20:53.567Z,100.00
2022-08-28T05:23:22.203Z,100.00
2022-08-28T05:25:53.876Z,100.00
2022-08-28T05:28:23.787Z,100.00
2022-08-28T05:30:54.037Z,100.00
2022-08-28T05:33:22.152Z,100.00
2022-08-28T05:35:50.207Z,100.00
2022-08-28T05:38:18.397Z,100.00
2022-08-28T05:40:49.097Z,100.00
2022-08-28T05:43:18.438Z,100.00
2022-08-28T05:45:46.524Z,100.00
2022-08-28T05:48:16.237Z,100.00
2022-08-28T05:50:47.346Z,100.00
2022-08-28T05:53:17.528Z,100.00
2022-08-28T05:55:46.595Z,100.00
2022-08-28T05:58:33.558Z,100.00
2022-08-28T06:01:10.791Z,100.00
2022-08-28T06:03:41.636Z,100.00
2022-08-28T06:06:11.644Z,100.00
2022-08-28T06:08:58.214Z,100.00
2022-08-28T06:11:30.316Z,100.00
2022-08-28T06:14:02.472Z,100.00
2022-08-28T06:16:32.797Z,100.00
2022-08-28T06:19:02.243Z,100.00
2022-08-28T06:21:30.703Z,100.00
2022-08-28T06:23:58.817Z,100.00
2022-08-28T06:26:27.193Z,100.00
2022-08-28T06:28:55.889Z,100.00
2022-08-28T06:31:25.868Z,100.00
2022-08-28T06:33:56.045Z,100.00
2022-08-28T06:36:27.838Z,100.00
2022-08-28T06:38:58.097Z,100.00
2022-08-28T06:41:27.358Z,100.00
2022-08-28T06:43:56.114Z,100.00
2022-08-28T06:46:25.128Z,100.00
2022-08-28T06:48:54.239Z,100.00
2022-08-28T06:51:23.178Z,100.00
2022-08-28T06:53:54.467Z,100.00
2022-08-28T06:56:26.290Z,100.00
2022-08-28T06:58:56.970Z,100.00
2022-08-28T07:01:29.204Z,100.00
2022-08-28T07:04:00.149Z,100.00
2022-08-28T07:06:30.173Z,100.00
2022-08-28T07:08:59.599Z,100.00
2022-08-28T07:11:29.814Z,100.00
2022-08-28T07:13:58.644Z,100.00
2022-08-28T07:16:29.389Z,100.00
2022-08-28T07:18:58.219Z,100.00
2022-08-28T07:21:27.077Z,100.00
2022-08-28T07:23:56.219Z,100.00
2022-08-28T07:26:27.829Z,100.00
2022-08-28T07:28:59.513Z,100.00
2022-08-28T07:31:40.741Z,100.00
2022-08-28T07:34:10.546Z,100.00
2022-08-28T07:36:39.556Z,100.00
2022-08-28T07:39:08.340Z,100.00
2022-08-28T07:41:40.207Z,100.00
2022-08-28T07:44:26.516Z,100.00
2022-08-28T07:46:56.271Z,100.00
2022-08-28T07:49:25.029Z,100.00
2022-08-28T07:51:54.009Z,100.00
2022-08-28T07:54:23.353Z,100.00
2022-08-28T07:56:53.646Z,100.00
2022-08-28T07:59:21.985Z,100.00
2022-08-28T08:01:52.152Z,100.00
2022-08-28T08:04:22.330Z,100.00
2022-08-28T08:06:55.603Z,100.00
2022-08-28T08:09:26.132Z,100.00
2022-08-28T08:11:57.495Z,100.00
2022-08-28T08:14:25.738Z,100.00
2022-08-28T08:16:54.136Z,100.00
2022-08-28T08:19:22.289Z,100.00
2022-08-28T08:21:54.658Z,100.00
2022-08-28T08:24:26.429Z,100.00
2022-08-28T08:26:59.835Z,100.00
2022-08-28T08:29:31.418Z,100.00
2022-08-28T08:32:05.094Z,100.00
2022-08-28T08:34:34.154Z,100.00
2022-08-28T08:37:02.585Z,100.00
2022-08-28T08:39:31.803Z,100.00
2022-08-28T08:42:04.786Z,100.00
2022-08-28T08:44:35.446Z,100.00
2022-08-28T08:47:14.758Z,100.00
2022-08-28T08:49:49.446Z,100.00
2022-08-28T08:52:30.169Z,100.00
2022-08-28T08:55:17.114Z,100.00
2022-08-28T08:57:49.582Z,100.00
2022-08-28T09:00:19.182Z,100.00
2022-08-28T09:02:54.838Z,100.00
2022-08-28T09:05:31.749Z,100.00
2022-08-28T09:08:02.931Z,100.00
2022-08-28T09:10:39.648Z,100.00
2022-08-28T09:13:19.090Z,100.00
2022-08-28T09:15:50.486Z,100.00
2022-08-28T09:18:23.516Z,100.00
2022-08-28T09:20:53.060Z,100.00
2022-08-28T09:23:23.089Z,100.00
2022-08-28T09:25:55.136Z,100.00
2022-08-28T09:28:27.728Z,100.00
2022-08-28T09:31:01.180Z,100.00
2022-08-28T09:33:40.123Z,100.00
2022-08-28T09:36:26.470Z,100.00
2022-08-28T09:39:07.244Z,100.00
2022-08-28T09:41:56.267Z,100.00
2022-08-28T09:44:26.420Z,100.00
2022-08-28T09:46:54.481Z,100.00
2022-08-28T09:49:28.839Z,100.00
2022-08-28T09:51:59.448Z,100.00
2022-08-28T09:54:34.105Z,100.00
2022-08-28T09:57:03.771Z,100.00
2022-08-28T09:59:33.295Z,100.00
2022-08-28T10:02:22.315Z,100.00
2022-08-28T10:04:59.046Z,100.00
2022-08-28T10:07:42.481Z,98.68
2022-08-28T10:10:35.183Z,91.01
2022-08-28T10:13:09.854Z,90.38
2022-08-28T10:15:54.714Z,87.46
2022-08-28T10:18:37.390Z,84.97
2022-08-28T10:21:14.708Z,84.80
2022-08-28T10:24:08.605Z,84.63
2022-08-28T10:26:42.761Z,84.94
2022-08-28T10:29:25.051Z,88.00
2022-08-28T10:32:04.433Z,90.91
2022-08-28T10:34:44.474Z,93.91
2022-08-28T10:37:20.753Z,94.21
2022-08-28T10:39:53.688Z,95.31
2022-08-28T10:42:35.817Z,92.01
2022-08-28T10:45:09.525Z,91.82
2022-08-28T10:47:43.548Z,90.60
2022-08-28T10:50:17.321Z,91.75
2022-08-28T10:52:49.670Z,91.49
2022-08-28T10:55:22.493Z,89.79
2022-08-28T10:57:57.575Z,93.03
2022-08-28T11:00:27.424Z,94.18
2022-08-28T11:02:59.613Z,92.72
2022-08-28T11:05:31.877Z,96.08
2022-08-28T11:08:05.199Z,98.68
2022-08-28T11:10:46.799Z,97.44
2022-08-28T11:13:44.281Z,100.00
2022-08-28T11:16:19.117Z,99.89
2022-08-28T11:19:20.174Z,97.94
2022-08-28T11:21:52.765Z,95.18
2022-08-28T11:24:32.790Z,94.75
2022-08-28T11:27:16.857Z,96.35
2022-08-28T11:30:06.818Z,96.62
2022-08-28T11:32:46.860Z,98.56
2022-08-28T11:35:39.818Z,97.87
2022-08-28T11:38:08.411Z,96.72
2022-08-28T11:40:55.989Z,96.23
2022-08-28T11:43:37.712Z,95.96
2022-08-28T11:46:25.424Z,95.19
2022-08-28T11:48:55.807Z,95.71
2022-08-28T11:51:50.800Z,96.34
2022-08-28T11:54:33.305Z,98.77
2022-08-28T11:57:11.571Z,100.00
2022-08-28T12:00:01.328Z,98.17
2022-08-28T12:03:05.342Z,100.00
2022-08-28T12:05:49.976Z,100.00
2022-08-28T12:09:10.598Z,100.00
2022-08-28T12:11:52.517Z,92.52
2022-08-28T12:15:03.889Z,93.64
2022-08-28T12:17:51.396Z,90.90
2022-08-28T12:20:29.268Z,91.37
2022-08-28T12:23:00.086Z,90.58
2022-08-28T12:25:33.202Z,89.56
2022-08-28T12:28:15.930Z,84.79
2022-08-28T12:30:51.287Z,81.83
2022-08-28T12:33:28.312Z,76.56
2022-08-28T12:36:02.059Z,74.15
2022-08-28T12:38:32.440Z,73.50
2022-08-28T12:41:00.984Z,74.32
2022-08-28T12:43:35.705Z,73.80
2022-08-28T12:46:19.606Z,72.74
2022-08-28T12:48:51.319Z,72.45
2022-08-28T12:51:22.917Z,73.49
2022-08-28T12:53:55.186Z,76.08
2022-08-28T12:56:34.009Z,76.48
2022-08-28T12:59:27.538Z,80.58
2022-08-28T13:02:02.096Z,93.83
2022-08-28T13:04:35.836Z,99.71
2022-08-28T13:07:11.163Z,100.00
2022-08-28T13:09:45.867Z,98.86
2022-08-28T13:12:20.835Z,94.22
2022-08-28T13:14:52.219Z,95.62
2022-08-28T13:17:45.793Z,100.00
2022-08-28T13:20:25.540Z,100.00
2022-08-28T13:22:54.021Z,100.00
2022-08-28T13:25:25.324Z,98.09
2022-08-28T13:27:59.181Z,97.45
2022-08-28T13:30:33.414Z,98.00
2022-08-28T13:33:04.602Z,100.00
2022-08-28T13:35:42.010Z,100.00
2022-08-28T13:38:12.453Z,100.00
2022-08-28T13:41:03.933Z,100.00
2022-08-28T13:43:44.936Z,100.00
2022-08-28T13:46:14.787Z,100.00
2022-08-28T13:48:42.797Z,99.68
2022-08-28T13:51:20.614Z,96.99
2022-08-28T13:53:49.107Z,98.93
2022-08-28T13:56:18.045Z,98.42
2022-08-28T13:58:47.844Z,98.78
2022-08-28T14:01:48.136Z,98.33
2022-08-28T14:04:15.538Z,96.73
2022-08-28T14:06:44.106Z,94.49
2022-08-28T14:09:15.413Z,92.63
2022-08-28T14:11:47.089Z,91.50
2022-08-28T14:14:15.370Z,92.06
2022-08-28T14:16:45.671Z,92.42
2022-08-28T14:19:14.258Z,91.76
2022-08-28T14:21:42.545Z,90.87
2022-08-28T14:24:11.247Z,90.60
2022-08-28T14:26:40.148Z,90.11
2022-08-28T14:29:10.667Z,90.64
2022-08-28T14:31:41.017Z,93.54
2022-08-28T14:34:12.216Z,95.33
2022-08-28T14:36:41.252Z,91.90
2022-08-28T14:39:11.880Z,91.37
2022-08-28T14:41:44.182Z,91.00
2022-08-28T14:44:12.168Z,90.24
2022-08-28T14:46:42.846Z,90.79
2022-08-28T14:49:13.665Z,91.27
2022-08-28T14:51:43.140Z,93.38
2022-08-28T14:54:13.119Z,93.75
2022-08-28T14:56:41.786Z,94.64
2022-08-28T14:59:16.045Z,97.78
2022-08-28T15:01:48.645Z,99.50
2022-08-28T15:04:22.695Z,99.57
2022-08-28T15:06:52.302Z,100.00
2022-08-28T15:09:20.517Z,100.00
2022-08-28T15:11:48.545Z,100.00
2022-08-28T15:14:16.922Z,98.53
2022-08-28T15:16:47.583Z,98.63
2022-08-28T15:19:19.118Z,98.07
2022-08-28T15:21:49.966Z,98.71
2022-08-28T15:24:19.847Z,100.00
2022-08-28T15:26:48.199Z,100.00
2022-08-28T15:29:16.604Z,100.00
2022-08-28T15:31:47.260Z,100.00
2022-08-28T15:34:17.394Z,100.00
2022-08-28T15:36:52.843Z,100.00
2022-08-28T15:39:41.237Z,100.00
2022-08-28T15:42:09.985Z,96.16
2022-08-28T15:44:38.843Z,94.13
2022-08-28T15:47:07.241Z,90.15
2022-08-28T15:49:43.588Z,87.20
2022-08-28T15:52:19.977Z,91.42
2022-08-28T15:54:48.637Z,94.62
2022-08-28T15:57:16.952Z,95.75
2022-08-28T15:59:49.614Z,100.00
2022-08-28T16:02:19.677Z,100.00
2022-08-28T16:04:47.937Z,100.00
2022-08-28T16:07:16.137Z,100.00
2022-08-28T16:09:45.672Z,100.00
2022-08-28T16:12:14.174Z,100.00
2022-08-28T16:14:42.273Z,100.00
2022-08-28T16:17:11.460Z,100.00
2022-08-28T16:19:40.107Z,100.00
2022-08-28T16:22:08.500Z,100.00
2022-08-28T16:24:36.891Z,100.00
2022-08-28T16:27:09.698Z,100.00
2022-08-28T16:29:41.255Z,100.00
2022-08-28T16:32:09.397Z,100.00
2022-08-28T16:34:39.808Z,100.00
2022-08-28T16:37:08.191Z,100.00
2022-08-28T16:39:36.698Z,100.00
2022-08-28T16:42:06.496Z,100.00
2022-08-28T16:44:34.807Z,100.00
2022-08-28T16:47:02.877Z,100.00
2022-08-28T16:49:30.997Z,100.00
2022-08-28T16:51:59.039Z,100.00
2022-08-28T16:54:27.061Z,100.00
2022-08-28T16:56:55.140Z,100.00
2022-08-28T16:59:24.517Z,100.00
2022-08-28T17:01:52.998Z,100.00
2022-08-28T17:04:22.436Z,100.00
2022-08-28T17:06:50.748Z,100.00
2022-08-28T17:09:20.953Z,100.00
2022-08-28T17:11:52.390Z,100.00
2022-08-28T17:14:20.994Z,100.00
2022-08-28T17:16:51.324Z,100.00
2022-08-28T17:19:20.854Z,100.00
2022-08-28T17:22:06.338Z,100.00
2022-08-28T17:24:34.373Z,100.00
2022-08-28T17:27:05.695Z,100.00
2022-08-28T17:29:34.780Z,100.00
2022-08-28T17:32:05.275Z,100.00
2022-08-28T17:34:33.585Z,100.00
2022-08-28T17:37:01.708Z,100.00
2022-08-28T17:39:30.185Z,100.00
2022-08-28T17:41:58.231Z,100.00
2022-08-28T17:44:26.314Z,100.00
2022-08-28T17:46:54.520Z,100.00
2022-08-28T17:49:24.021Z,100.00
2022-08-28T17:51:52.191Z,100.00
2022-08-28T17:54:24.075Z,100.00
2022-08-28T17:56:52.674Z,100.00
2022-08-28T17:59:21.648Z,100.00
2022-08-28T18:01:50.013Z,100.00
2022-08-28T18:04:23.816Z,100.00
2022-08-28T18:06:54.641Z,100.00
2022-08-28T18:09:23.951Z,100.00
2022-08-28T18:11:52.666Z,100.00
2022-08-28T18:14:21.329Z,100.00
2022-08-28T18:16:49.704Z,100.00
2022-08-28T18:19:17.875Z,100.00
2022-08-28T18:21:46.765Z,100.00
2022-08-28T18:24:17.214Z,100.00
2022-08-28T18:26:47.320Z,100.00
2022-08-28T18:29:16.010Z,100.00
2022-08-28T18:31:44.270Z,100.00
2022-08-28T18:34:12.599Z,100.00
2022-08-28T18:36:41.639Z,100.00
2022-08-28T18:39:10.566Z,100.00
2022-08-28T18:41:43.919Z,100.00
2022-08-28T18:44:14.504Z,100.00
2022-08-28T18:46:43.840Z,100.00
2022-08-28T18:49:12.959Z,100.00
2022-08-28T18:51:43.434Z,100.00
2022-08-28T18:54:12.277Z,100.00
2022-08-28T18:56:41.805Z,100.00
2022-08-28T18:59:11.109Z,100.00
2022-08-28T19:01:39.329Z,100.00
2022-08-28T19:04:08.269Z,100.00
2022-08-28T19:06:36.848Z,100.00
2022-08-28T19:09:06.472Z,100.00
2022-08-28T19:11:35.871Z,100.00
2022-08-28T19:14:05.784Z,100.00
2022-08-28T19:16:35.228Z,100.00
2022-08-28T19:19:03.689Z,100.00
2022-08-28T19:21:32.646Z,100.00
2022-08-28T19:24:00.761Z,100.00
2022-08-28T19:26:29.352Z,100.00
2022-08-28T19:28:57.963Z,100.00
2022-08-28T19:31:28.484Z,100.00
2022-08-28T19:33:57.374Z,100.00
2022-08-28T19:36:27.124Z,100.00
2022-08-28T19:38:55.288Z,100.00
2022-08-28T19:41:23.906Z,100.00
2022-08-28T19:43:51.961Z,100.00
2022-08-28T19:46:20.697Z,100.00
2022-08-28T19:48:51.113Z,100.00
2022-08-28T19:51:23.339Z,100.00
2022-08-28T19:53:57.799Z,100.00
2022-08-28T19:56:27.798Z,100.00
2022-08-28T19:58:59.049Z,100.00
2022-08-28T20:01:29.839Z,100.00
2022-08-28T20:04:00.883Z,100.00
2022-08-28T20:06:31.412Z,100.00
2022-08-28T20:08:59.992Z,100.00
2022-08-28T20:11:30.606Z,100.00
2022-08-28T20:14:03.860Z,100.00
2022-08-28T20:16:34.677Z,100.00
2022-08-28T20:19:05.175Z,100.00
2022-08-28T20:21:37.696Z,100.00
2022-08-28T20:24:07.388Z,100.00
2022-08-28T20:26:35.670Z,100.00
2022-08-28T20:29:04.265Z,100.00
2022-08-28T20:31:32.322Z,100.00
2022-08-28T20:34:00.503Z,100.00
2022-08-28T20:36:29.946Z,100.00
2022-08-28T20:38:58.084Z,100.00
2022-08-28T20:41:26.245Z,100.00
2022-08-28T20:43:54.356Z,100.00
2022-08-28T20:46:22.476Z,100.00
2022-08-28T20:48:50.500Z,100.00
2022-08-28T20:51:38.657Z,100.00
2022-08-28T20:54:08.129Z,100.00
2022-08-28T20:56:36.403Z,100.00
2022-08-28T20:59:05.154Z,100.00
2022-08-28T21:01:33.756Z,100.00
2022-08-28T21:04:02.641Z,100.00
2022-08-28T21:06:31.107Z,100.00
2022-08-28T21:08:59.538Z,100.00
2022-08-28T21:11:29.549Z,100.00
2022-08-28T21:13:57.800Z,100.00
2022-08-28T21:16:26.160Z,100.00
2022-08-28T21:19:14.842Z,100.00
2022-08-28T21:21:42.791Z,100.00
2022-08-28T21:24:13.487Z,100.00
2022-08-28T21:26:44.648Z,100.00
2022-08-28T21:29:13.907Z,100.00
2022-08-28T21:31:43.256Z,100.00
2022-08-28T21:34:12.062Z,100.00
2022-08-28T21:36:48.156Z,100.00
2022-08-28T21:39:19.861Z,100.00
2022-08-28T21:41:49.955Z,100.00
2022-08-28T21:44:18.572Z,100.00
2022-08-28T21:46:47.033Z,100.00
2022-08-28T21:49:15.045Z,100.00
2022-08-28T21:51:43.195Z,100.00
2022-08-28T21:54:11.216Z,100.00
2022-08-28T21:56:39.241Z,100.00
2022-08-28T21:59:08.802Z,100.00
2022-08-28T22:01:36.893Z,100.00
2022-08-28T22:04:05.150Z,100.00
2022-08-28T22:06:33.483Z,100.00
2022-08-28T22:09:02.237Z,100.00
2022-08-28T22:11:31.009Z,100.00
2022-08-28T22:13:59.126Z,100.00
2022-08-28T22:16:29.547Z,100.00
2022-08-28T22:18:57.650Z,100.00
2022-08-28T22:21:45.733Z,100.00
2022-08-28T22:24:14.429Z,100.00
2022-08-28T22:26:43.828Z,100.00
2022-08-28T22:29:13.063Z,100.00
2022-08-28T22:31:45.744Z,100.00
2022-08-28T22:34:15.144Z,100.00
2022-08-28T22:36:43.245Z,100.00
2022-08-28T22:39:11.313Z,100.00
2022-08-28T22:41:40.000Z,100.00
2022-08-28T22:44:08.026Z,100.00
2022-08-28T22:46:36.121Z,100.00
2022-08-28T22:49:05.729Z,100.00
2022-08-28T22:51:35.131Z,100.00
2022-08-28T22:54:03.505Z,100.00
2022-08-28T22:56:31.518Z,100.00
2022-08-28T22:58:59.651Z,100.00
2022-08-28T23:01:27.921Z,100.00
2022-08-28T23:03:56.052Z,100.00
2022-08-28T23:06:25.450Z,100.00
2022-08-28T23:08:53.489Z,100.00
2022-08-28T23:11:22.282Z,100.00
2022-08-28T23:13:50.476Z,100.00
2022-08-28T23:16:23.810Z,100.00
2022-08-28T23:19:08.658Z,100.00
2022-08-28T23:21:40.795Z,100.00
2022-08-28T23:24:12.539Z,100.00
2022-08-28T23:26:40.691Z,100.00
2022-08-28T23:29:09.130Z,100.00
2022-08-28T23:31:37.986Z,100.00
2022-08-28T23:34:06.855Z,100.00
2022-08-28T23:36:35.983Z,100.00
2022-08-28T23:39:06.493Z,100.00
2022-08-28T23:41:34.765Z,100.00
2022-08-28T23:44:07.795Z,100.00
2022-08-28T23:46:37.132Z,100.00
2022-08-28T23:49:10.433Z,100.00
2022-08-28T23:51:38.699Z,100.00
2022-08-28T23:54:09.113Z,100.00
2022-08-28T23:56:38.095Z,100.00
2022-08-28T23:59:07.247Z,100.00
